createdAt,value
2018-07-28T00:00:38.264Z,24.77
2018-07-28T00:01:38.262Z,24.70
2018-07-28T00:02:38.282Z,24.76
2018-07-28T00:03:38.232Z,24.77
2018-07-28T00:04:38.227Z,24.73
2018-07-28T00:05:38.213Z,24.81
2018-07-28T00:06:38.196Z,24.77
2018-07-28T00:07:38.193Z,24.80
2018-07-28T00:08:38.218Z,24.80
2018-07-28T00:09:38.167Z,24.80
2018-07-28T00:10:38.154Z,24.85
2018-07-28T00:11:38.149Z,24.85
2018-07-28T00:12:38.142Z,24.77
2018-07-28T00:13:38.173Z,24.84
2018-07-28T00:14:38.136Z,24.81
2018-07-28T00:15:38.101Z,24.84
2018-07-28T00:16:38.093Z,24.86
2018-07-28T00:17:38.080Z,24.86
2018-07-28T00:18:38.068Z,24.81
2018-07-28T00:19:38.067Z,24.99
2018-07-28T00:20:38.050Z,24.93
2018-07-28T00:21:38.057Z,25.01
2018-07-28T00:22:38.031Z,24.95
2018-07-28T00:23:38.013Z,24.92
2018-07-28T00:24:38.007Z,24.98
2018-07-28T00:25:37.996Z,24.96
2018-07-28T00:26:37.988Z,24.98
2018-07-28T00:27:37.970Z,24.95
2018-07-28T00:28:37.962Z,24.93
2018-07-28T00:29:37.970Z,24.98
2018-07-28T00:30:37.942Z,24.81
2018-07-28T00:31:37.937Z,24.93
2018-07-28T00:32:37.925Z,24.93
2018-07-28T00:33:37.910Z,24.93
2018-07-28T00:34:37.931Z,24.81
2018-07-28T00:35:37.885Z,24.93
2018-07-28T00:36:37.875Z,24.99
2018-07-28T00:37:37.864Z,25.03
2018-07-28T00:38:37.851Z,24.98
2018-07-28T00:39:37.890Z,25.10
2018-07-28T00:40:37.840Z,25.03
2018-07-28T00:41:37.821Z,25.01
2018-07-28T00:42:37.827Z,25.06
2018-07-28T00:43:37.805Z,25.11
2018-07-28T00:44:37.793Z,25.13
2018-07-28T00:45:37.781Z,25.16
2018-07-28T00:46:37.777Z,25.16
2018-07-28T00:47:37.754Z,25.18
2018-07-28T00:48:37.747Z,25.29
2018-07-28T00:49:37.774Z,25.16
2018-07-28T00:50:37.729Z,25.26
2018-07-28T00:51:37.731Z,25.25
2018-07-28T00:52:37.705Z,25.21
2018-07-28T00:53:37.695Z,25.25
2018-07-28T00:54:37.686Z,25.26
2018-07-28T00:55:37.671Z,25.13
2018-07-28T00:56:37.666Z,25.13
2018-07-28T00:57:37.653Z,25.01
2018-07-28T00:58:37.665Z,24.99
2018-07-28T00:59:37.626Z,24.98
2018-07-28T01:00:37.620Z,25.03
2018-07-28T01:01:37.621Z,25.06
2018-07-28T01:02:37.593Z,25.08
2018-07-28T01:03:37.602Z,24.98
2018-07-28T01:04:37.587Z,25.01
2018-07-28T01:05:37.588Z,24.86
2018-07-28T01:06:37.574Z,24.96
2018-07-28T01:07:37.544Z,24.95
2018-07-28T01:08:37.531Z,24.93
2018-07-28T01:09:37.521Z,24.98
2018-07-28T01:10:37.536Z,24.95
2018-07-28T01:11:37.504Z,24.92
2018-07-28T01:12:37.498Z,24.88
2018-07-28T01:13:37.484Z,24.84
2018-07-28T01:14:37.464Z,24.81
2018-07-28T01:15:37.480Z,24.77
2018-07-28T01:16:37.468Z,24.78
2018-07-28T01:17:37.449Z,24.77
2018-07-28T01:18:37.431Z,24.81
2018-07-28T01:19:37.412Z,24.81
2018-07-28T01:20:37.416Z,24.84
2018-07-28T01:21:37.397Z,24.93
2018-07-28T01:22:37.378Z,24.96
2018-07-28T01:23:37.375Z,24.91
2018-07-28T01:24:37.361Z,24.92
2018-07-28T01:25:37.359Z,24.91
2018-07-28T01:26:37.368Z,24.99
2018-07-28T01:27:37.325Z,24.98
2018-07-28T01:28:37.320Z,24.95
2018-07-28T01:29:37.307Z,24.93
2018-07-28T01:30:37.299Z,24.88
2018-07-28T01:31:37.305Z,24.99
2018-07-28T01:32:37.273Z,24.93
2018-07-28T01:33:37.262Z,24.96
2018-07-28T01:34:37.251Z,24.88
2018-07-28T01:35:37.263Z,24.89
2018-07-28T01:36:37.234Z,24.80
2018-07-28T01:37:37.229Z,24.85
2018-07-28T01:38:37.213Z,24.84
2018-07-28T01:39:37.196Z,24.93
2018-07-28T01:40:37.187Z,24.99
2018-07-28T01:41:37.205Z,24.96
2018-07-28T01:42:37.163Z,24.95
2018-07-28T01:43:37.164Z,25.06
2018-07-28T01:44:37.148Z,24.98
2018-07-28T01:45:37.134Z,25.04
2018-07-28T01:46:37.124Z,24.96
2018-07-28T01:47:37.146Z,25.10
2018-07-28T01:48:37.102Z,25.03
2018-07-28T01:49:37.122Z,25.03
2018-07-28T01:50:37.102Z,25.04
2018-07-28T01:51:37.073Z,25.04
2018-07-28T01:52:37.088Z,25.11
2018-07-28T01:53:37.057Z,25.04
2018-07-28T01:54:37.037Z,24.98
2018-07-28T01:55:37.027Z,24.99
2018-07-28T01:56:37.020Z,25.10
2018-07-28T01:57:37.011Z,24.99
2018-07-28T01:58:36.998Z,24.96
2018-07-28T01:59:37.019Z,24.99
2018-07-28T02:00:36.974Z,24.91
2018-07-28T02:01:36.989Z,24.99
2018-07-28T02:02:36.961Z,24.98
2018-07-28T02:03:36.941Z,24.96
2018-07-28T02:04:36.928Z,24.99
2018-07-28T02:05:36.923Z,24.80
2018-07-28T02:06:36.909Z,24.84
2018-07-28T02:07:36.914Z,24.81
2018-07-28T02:08:36.892Z,24.81
2018-07-28T02:09:36.883Z,24.70
2018-07-28T02:10:36.895Z,24.68
2018-07-28T02:11:36.855Z,24.66
2018-07-28T02:12:36.843Z,24.66
2018-07-28T02:13:36.833Z,24.68
2018-07-28T02:14:36.834Z,24.65
2018-07-28T02:15:36.822Z,24.68
2018-07-28T02:16:36.809Z,24.68
2018-07-28T02:17:36.789Z,24.63
2018-07-28T02:18:36.781Z,24.63
2018-07-28T02:19:36.772Z,24.63
2018-07-28T02:20:36.763Z,24.61
2018-07-28T02:21:36.755Z,24.66
2018-07-28T02:22:36.741Z,24.54
2018-07-28T02:23:36.729Z,24.61
2018-07-28T02:24:36.718Z,24.61
2018-07-28T02:25:36.704Z,24.47
2018-07-28T02:26:36.722Z,24.57
2018-07-28T02:27:36.686Z,24.60
2018-07-28T02:28:36.689Z,24.48
2018-07-28T02:29:36.667Z,24.58
2018-07-28T02:30:36.654Z,24.63
2018-07-28T02:31:36.645Z,24.58
2018-07-28T02:32:36.636Z,24.53
2018-07-28T02:33:36.628Z,24.43
2018-07-28T02:34:36.637Z,24.53
2018-07-28T02:35:36.614Z,24.53
2018-07-28T02:36:36.621Z,24.51
2018-07-28T02:37:36.588Z,24.47
2018-07-28T02:38:36.567Z,24.40
2018-07-28T02:39:36.558Z,24.38
2018-07-28T02:40:36.549Z,24.43
2018-07-28T02:41:36.539Z,24.39
2018-07-28T02:42:36.533Z,24.38
2018-07-28T02:43:36.513Z,24.42
2018-07-28T02:44:36.503Z,24.51
2018-07-28T02:45:36.489Z,24.47
2018-07-28T02:46:36.484Z,24.54
2018-07-28T02:47:36.501Z,24.48
2018-07-28T02:48:36.463Z,24.45
2018-07-28T02:49:36.444Z,24.50
2018-07-28T02:50:36.441Z,24.54
2018-07-28T02:51:36.428Z,24.51
2018-07-28T02:52:36.419Z,24.55
2018-07-28T02:53:36.412Z,24.61
2018-07-28T02:54:36.396Z,24.51
2018-07-28T02:55:36.389Z,24.51
2018-07-28T02:56:36.387Z,24.45
2018-07-28T02:57:36.371Z,24.61
2018-07-28T02:58:36.357Z,24.60
2018-07-28T02:59:36.346Z,24.63
2018-07-28T03:00:36.335Z,24.63
2018-07-28T03:01:36.325Z,24.57
2018-07-28T03:02:36.310Z,24.57
2018-07-28T03:03:36.303Z,24.60
2018-07-28T03:04:36.310Z,24.54
2018-07-28T03:05:36.280Z,24.54
2018-07-28T03:06:36.279Z,24.61
2018-07-28T03:07:36.254Z,24.58
2018-07-28T03:08:36.251Z,24.60
2018-07-28T03:09:36.230Z,24.54
2018-07-28T03:10:36.232Z,24.63
2018-07-28T03:11:36.218Z,24.54
2018-07-28T03:12:36.228Z,24.61
2018-07-28T03:13:36.222Z,24.50
2018-07-28T03:14:36.181Z,24.47
2018-07-28T03:15:36.172Z,24.47
2018-07-28T03:16:36.155Z,24.43
2018-07-28T03:17:36.143Z,24.42
2018-07-28T03:18:36.135Z,24.32
2018-07-28T03:19:36.136Z,24.38
2018-07-28T03:20:36.129Z,24.43
2018-07-28T03:21:36.100Z,24.38
2018-07-28T03:22:36.092Z,24.28
2018-07-28T03:23:36.092Z,24.32
2018-07-28T03:24:36.076Z,24.20
2018-07-28T03:25:36.089Z,24.10
2018-07-28T03:26:36.055Z,23.92
2018-07-28T03:27:36.040Z,23.83
2018-07-28T03:28:36.025Z,23.69
2018-07-28T03:29:36.046Z,23.58
2018-07-28T03:30:36.005Z,23.44
2018-07-28T03:31:36.000Z,23.31
2018-07-28T03:32:35.989Z,23.23
2018-07-28T03:33:35.980Z,22.98
2018-07-28T03:34:35.971Z,22.90
2018-07-28T03:35:35.958Z,22.81
2018-07-28T03:36:35.938Z,22.68
2018-07-28T03:37:35.934Z,22.57
2018-07-28T03:38:35.921Z,22.50
2018-07-28T03:39:35.924Z,22.33
2018-07-28T03:40:35.910Z,22.33
2018-07-28T03:41:35.885Z,22.36
2018-07-28T03:42:35.877Z,22.44
2018-07-28T03:43:35.867Z,22.47
2018-07-28T03:44:35.872Z,22.50
2018-07-28T03:45:35.887Z,22.50
2018-07-28T03:46:35.844Z,22.59
2018-07-28T03:47:35.822Z,22.66
2018-07-28T03:48:35.818Z,22.68
2018-07-28T03:49:35.801Z,22.87
2018-07-28T03:50:35.791Z,22.88
2018-07-28T03:51:35.785Z,22.91
2018-07-28T03:52:35.775Z,23.08
2018-07-28T03:53:35.758Z,23.13
2018-07-28T03:54:35.748Z,23.17
2018-07-28T03:55:35.739Z,23.13
2018-07-28T03:56:35.740Z,23.05
2018-07-28T03:57:35.722Z,23.08
2018-07-28T03:58:35.709Z,23.06
2018-07-28T03:59:35.708Z,23.31
2018-07-28T04:00:35.681Z,23.37
2018-07-28T04:01:35.672Z,23.46
2018-07-28T04:02:35.661Z,23.50
2018-07-28T04:03:35.695Z,23.56
2018-07-28T04:04:35.646Z,23.51
2018-07-28T04:05:35.636Z,23.92
2018-07-28T04:06:35.626Z,24.06
2018-07-28T04:07:35.623Z,24.32
2018-07-28T04:08:35.594Z,24.60
2018-07-28T04:09:35.590Z,24.61
2018-07-28T04:10:35.584Z,24.57
2018-07-28T04:11:35.608Z,24.54
2018-07-28T04:12:35.552Z,24.50
2018-07-28T04:13:35.552Z,24.48
2018-07-28T04:14:35.558Z,24.50
2018-07-28T04:15:35.541Z,24.50
2018-07-28T04:16:35.523Z,24.30
2018-07-28T04:17:35.512Z,24.38
2018-07-28T04:18:35.512Z,24.36
2018-07-28T04:19:35.476Z,24.40
2018-07-28T04:20:35.467Z,24.43
2018-07-28T04:21:35.461Z,24.35
2018-07-28T04:22:35.472Z,24.36
2018-07-28T04:23:35.440Z,24.45
2018-07-28T04:24:35.432Z,24.33
2018-07-28T04:25:35.414Z,24.28
2018-07-28T04:26:35.413Z,24.26
2018-07-28T04:27:35.396Z,24.23
2018-07-28T04:28:35.444Z,24.21
2018-07-28T04:29:35.471Z,24.23
2018-07-28T04:30:35.365Z,24.14
2018-07-28T04:31:35.347Z,24.14
2018-07-28T04:32:35.347Z,24.05
2018-07-28T04:33:35.329Z,23.93
2018-07-28T04:34:35.324Z,23.87
2018-07-28T04:35:35.310Z,23.77
2018-07-28T04:36:35.304Z,23.80
2018-07-28T04:37:35.296Z,23.92
2018-07-28T04:38:35.288Z,23.86
2018-07-28T04:39:35.260Z,23.91
2018-07-28T04:40:35.265Z,23.80
2018-07-28T04:41:35.253Z,23.73
2018-07-28T04:42:35.235Z,23.73
2018-07-28T04:43:35.246Z,23.71
2018-07-28T04:44:35.209Z,23.65
2018-07-28T04:45:35.199Z,23.62
2018-07-28T04:46:35.188Z,23.58
2018-07-28T04:47:35.181Z,23.34
2018-07-28T04:48:35.200Z,23.37
2018-07-28T04:49:35.158Z,23.23
2018-07-28T04:50:35.154Z,23.21
2018-07-28T04:51:35.146Z,23.08
2018-07-28T04:52:35.122Z,23.03
2018-07-28T04:53:35.112Z,23.00
2018-07-28T04:54:35.101Z,22.93
2018-07-28T04:55:35.124Z,22.87
2018-07-28T04:56:35.082Z,22.72
2018-07-28T04:57:35.075Z,22.78
2018-07-28T04:58:35.062Z,22.90
2018-07-28T04:59:35.056Z,22.87
2018-07-28T05:00:35.042Z,22.88
2018-07-28T05:01:35.029Z,22.94
2018-07-28T05:02:35.036Z,22.88
2018-07-28T05:03:35.029Z,22.91
2018-07-28T05:04:35.020Z,22.81
2018-07-28T05:05:34.991Z,22.83
2018-07-28T05:06:34.970Z,22.80
2018-07-28T05:07:35.158Z,22.90
2018-07-28T05:08:34.957Z,22.85
2018-07-28T05:09:34.967Z,22.85
2018-07-28T05:10:34.940Z,22.78
2018-07-28T05:11:34.916Z,22.75
2018-07-28T05:12:34.908Z,22.75
2018-07-28T05:13:34.900Z,22.73
2018-07-28T05:14:34.896Z,22.68
2018-07-28T05:15:34.879Z,22.83
2018-07-28T05:16:34.867Z,22.78
2018-07-28T05:17:34.854Z,22.96
2018-07-28T05:18:34.857Z,23.03
2018-07-28T05:19:34.870Z,22.99
2018-07-28T05:20:34.828Z,23.00
2018-07-28T05:21:34.815Z,22.90
2018-07-28T05:22:34.805Z,22.88
2018-07-28T05:23:34.815Z,22.93
2018-07-28T05:24:34.781Z,22.98
2018-07-28T05:25:34.770Z,22.98
2018-07-28T05:26:34.765Z,23.12
2018-07-28T05:27:34.751Z,23.12
2018-07-28T05:28:34.755Z,23.17
2018-07-28T05:29:34.786Z,23.13
2018-07-28T05:30:34.730Z,23.18
2018-07-28T05:31:34.709Z,23.18
2018-07-28T05:32:34.695Z,23.13
2018-07-28T05:33:34.696Z,23.18
2018-07-28T05:34:34.676Z,23.08
2018-07-28T05:35:34.695Z,22.99
2018-07-28T05:36:34.650Z,22.96
2018-07-28T05:37:34.649Z,22.87
2018-07-28T05:38:34.633Z,22.91
2018-07-28T05:39:34.623Z,22.87
2018-07-28T05:40:34.656Z,22.90
2018-07-28T05:41:34.605Z,22.90
2018-07-28T05:42:34.624Z,22.93
2018-07-28T05:43:34.572Z,22.90
2018-07-28T05:44:34.563Z,22.87
2018-07-28T05:45:34.562Z,22.88
2018-07-28T05:46:34.582Z,22.96
2018-07-28T05:47:34.533Z,22.99
2018-07-28T05:48:34.538Z,23.18
2018-07-28T05:49:34.512Z,23.21
2018-07-28T05:50:34.504Z,23.31
2018-07-28T05:51:34.523Z,23.34
2018-07-28T05:52:34.529Z,23.40
2018-07-28T05:53:34.472Z,23.43
2018-07-28T05:54:34.468Z,23.48
2018-07-28T05:55:34.444Z,23.48
2018-07-28T05:56:34.442Z,23.55
2018-07-28T05:57:34.446Z,23.55
2018-07-28T05:58:34.410Z,23.63
2018-07-28T05:59:34.407Z,23.50
2018-07-28T06:00:34.400Z,23.51
2018-07-28T06:01:34.381Z,23.51
2018-07-28T06:02:34.541Z,23.51
2018-07-28T06:03:34.367Z,23.50
2018-07-28T06:04:34.359Z,23.47
2018-07-28T06:05:34.341Z,23.44
2018-07-28T06:06:34.332Z,23.51
2018-07-28T06:07:34.314Z,23.58
2018-07-28T06:08:34.311Z,23.61
2018-07-28T06:09:34.295Z,23.68
2018-07-28T06:10:34.281Z,23.91
2018-07-28T06:11:34.292Z,23.96
2018-07-28T06:12:34.265Z,24.17
2018-07-28T06:13:34.262Z,24.40
2018-07-28T06:14:34.260Z,24.53
2018-07-28T06:15:34.236Z,24.76
2018-07-28T06:16:34.220Z,25.04
2018-07-28T06:17:34.211Z,25.16
2018-07-28T06:18:34.206Z,25.35
2018-07-28T06:19:34.194Z,25.43
2018-07-28T06:20:34.179Z,25.68
2018-07-28T06:21:34.169Z,25.80
2018-07-28T06:22:34.154Z,25.99
2018-07-28T06:23:34.177Z,26.02
2018-07-28T06:24:34.152Z,26.02
2018-07-28T06:25:34.126Z,26.10
2018-07-28T06:26:34.118Z,26.19
2018-07-28T06:27:34.105Z,26.34
2018-07-28T06:28:34.092Z,26.37
2018-07-28T06:29:34.086Z,26.43
2018-07-28T06:30:34.085Z,26.37
2018-07-28T06:31:34.114Z,26.36
2018-07-28T06:32:34.054Z,26.21
2018-07-28T06:33:34.132Z,26.18
2018-07-28T06:34:34.046Z,26.13
2018-07-28T06:35:34.139Z,26.07
2018-07-28T06:36:34.102Z,26.03
2018-07-28T06:37:34.071Z,25.96
2018-07-28T06:38:34.023Z,25.85
2018-07-28T06:39:34.090Z,25.72
2018-07-28T06:40:34.038Z,25.73
2018-07-28T06:41:33.978Z,25.78
2018-07-28T06:42:33.979Z,25.77
2018-07-28T06:43:33.988Z,25.73
2018-07-28T06:44:34.064Z,25.75
2018-07-28T06:45:34.823Z,25.68
2018-07-28T06:46:34.228Z,25.68
2018-07-28T06:47:33.993Z,25.66
2018-07-28T06:48:33.916Z,25.59
2018-07-28T06:49:33.887Z,25.68
2018-07-28T06:50:33.908Z,25.69
2018-07-28T06:51:33.893Z,25.68
2018-07-28T06:52:33.919Z,25.66
2018-07-28T06:53:33.921Z,25.78
2018-07-28T06:54:33.927Z,25.72
2018-07-28T06:55:33.835Z,25.78
2018-07-28T06:56:33.808Z,25.69
2018-07-28T06:57:33.790Z,25.55
2018-07-28T06:58:33.806Z,25.48
2018-07-28T06:59:33.757Z,25.43
2018-07-28T07:00:33.757Z,25.40
2018-07-28T07:01:33.753Z,25.23
2018-07-28T07:02:33.730Z,25.13
2018-07-28T07:03:33.782Z,25.04
2018-07-28T07:04:33.707Z,25.01
2018-07-28T07:05:33.694Z,24.98
2018-07-28T07:06:33.684Z,25.04
2018-07-28T07:07:33.677Z,25.01
2018-07-28T07:08:33.667Z,24.98
2018-07-28T07:09:33.656Z,25.01
2018-07-28T07:10:33.653Z,24.84
2018-07-28T07:11:33.709Z,24.85
2018-07-28T07:12:33.626Z,24.81
2018-07-28T07:13:33.607Z,24.78
2018-07-28T07:14:33.599Z,24.73
2018-07-28T07:15:33.594Z,24.70
2018-07-28T07:16:33.583Z,24.65
2018-07-28T07:17:34.516Z,24.54
2018-07-28T07:18:33.560Z,24.51
2018-07-28T07:19:33.543Z,24.42
2018-07-28T07:20:33.547Z,24.39
2018-07-28T07:21:33.559Z,24.28
2018-07-28T07:22:33.517Z,24.16
2018-07-28T07:23:33.498Z,24.01
2018-07-28T07:24:33.501Z,24.06
2018-07-28T07:25:33.498Z,23.91
2018-07-28T07:26:33.502Z,23.99
2018-07-28T07:27:33.512Z,23.93
2018-07-28T07:28:33.452Z,23.91
2018-07-28T07:29:33.449Z,23.92
2018-07-28T07:30:33.455Z,24.05
2018-07-28T07:31:33.430Z,24.23
2018-07-28T07:32:33.490Z,24.28
2018-07-28T07:33:33.397Z,24.42
2018-07-28T07:34:33.386Z,24.42
2018-07-28T07:35:33.387Z,24.32
2018-07-28T07:36:33.372Z,24.45
2018-07-28T07:37:33.376Z,24.42
2018-07-28T07:38:33.385Z,24.36
2018-07-28T07:39:33.349Z,24.33
2018-07-28T07:40:33.364Z,24.35
2018-07-28T07:41:33.400Z,24.30
2018-07-28T07:42:33.346Z,24.24
2018-07-28T07:43:33.334Z,24.24
2018-07-28T07:44:33.306Z,24.10
2018-07-28T07:45:33.274Z,24.16
2018-07-28T07:46:33.295Z,24.01
2018-07-28T07:47:33.393Z,24.02
2018-07-28T07:48:33.270Z,23.96
2018-07-28T07:49:33.232Z,23.95
2018-07-28T07:50:33.227Z,23.81
2018-07-28T07:51:33.209Z,23.69
2018-07-28T07:52:33.201Z,23.73
2018-07-28T07:53:33.215Z,23.73
2018-07-28T07:54:33.183Z,23.77
2018-07-28T07:55:33.164Z,23.66
2018-07-28T07:56:33.156Z,23.63
2018-07-28T07:57:33.145Z,23.65
2018-07-28T07:58:33.133Z,23.58
2018-07-28T07:59:33.173Z,23.40
2018-07-28T08:00:33.118Z,23.25
2018-07-28T08:01:33.197Z,23.18
2018-07-28T08:02:33.131Z,23.00
2018-07-28T08:03:33.123Z,22.84
2018-07-28T08:04:33.086Z,22.66
2018-07-28T08:05:33.068Z,22.60
2018-07-28T08:06:33.097Z,22.54
2018-07-28T08:07:33.106Z,22.20
2018-07-28T08:08:33.054Z,22.04
2018-07-28T08:09:33.097Z,21.62
2018-07-28T08:10:33.052Z,21.57
2018-07-28T08:11:33.051Z,21.43
2018-07-28T08:12:33.093Z,21.30
2018-07-28T08:13:33.025Z,21.32
2018-07-28T08:14:32.982Z,21.17
2018-07-28T08:15:32.996Z,21.06
2018-07-28T08:16:32.981Z,21.00
2018-07-28T08:17:32.972Z,20.93
2018-07-28T08:18:32.968Z,20.74
2018-07-28T08:19:32.949Z,20.69
2018-07-28T08:20:33.073Z,20.77
2018-07-28T08:21:33.248Z,20.75
2018-07-28T08:22:33.105Z,20.69
2018-07-28T08:23:32.926Z,20.78
2018-07-28T08:24:32.951Z,20.87
2018-07-28T08:25:32.863Z,20.92
2018-07-28T08:26:32.845Z,20.97
2018-07-28T08:27:32.833Z,21.15
2018-07-28T08:28:32.819Z,21.27
2018-07-28T08:29:32.915Z,21.36
2018-07-28T08:30:32.884Z,21.42
2018-07-28T08:31:32.785Z,21.52
2018-07-28T08:32:32.779Z,21.64
2018-07-28T08:33:32.761Z,21.72
2018-07-28T08:34:32.753Z,21.85
2018-07-28T08:35:32.735Z,21.88
2018-07-28T08:36:32.733Z,21.98
2018-07-28T08:37:32.722Z,22.15
2018-07-28T08:38:32.705Z,22.13
2018-07-28T08:39:32.699Z,22.28
2018-07-28T08:40:32.687Z,22.39
2018-07-28T08:41:32.689Z,22.50
2018-07-28T08:42:32.663Z,22.54
2018-07-28T08:43:32.664Z,22.55
2018-07-28T08:44:32.643Z,22.53
2018-07-28T08:45:32.633Z,22.62
2018-07-28T08:46:32.625Z,22.78
2018-07-28T08:47:32.617Z,22.73
2018-07-28T08:48:32.598Z,22.85
2018-07-28T08:49:32.631Z,22.80
2018-07-28T08:50:32.578Z,22.93
2018-07-28T08:51:32.597Z,22.91
2018-07-28T08:52:32.583Z,22.81
2018-07-28T08:53:32.557Z,22.75
2018-07-28T08:54:32.572Z,22.65
2018-07-28T08:55:32.564Z,22.63
2018-07-28T08:56:32.543Z,22.69
2018-07-28T08:57:32.504Z,22.63
2018-07-28T08:58:32.499Z,22.62
2018-07-28T08:59:32.492Z,22.54
2018-07-28T09:00:32.486Z,22.50
2018-07-28T09:01:32.466Z,22.53
2018-07-28T09:02:32.464Z,22.48
2018-07-28T09:03:32.442Z,22.45
2018-07-28T09:04:32.435Z,22.51
2018-07-28T09:05:32.418Z,22.47
2018-07-28T09:06:32.433Z,22.44
2018-07-28T09:07:32.412Z,22.36
2018-07-28T09:08:32.392Z,22.30
2018-07-28T09:09:32.391Z,22.26
2018-07-28T09:10:32.407Z,22.14
2018-07-28T09:11:32.364Z,22.14
2018-07-28T09:12:32.485Z,22.04
2018-07-28T09:13:32.329Z,22.07
2018-07-28T09:14:32.317Z,21.95
2018-07-28T09:15:32.312Z,21.93
2018-07-28T09:16:32.341Z,21.98
2018-07-28T09:17:32.307Z,22.00
2018-07-28T09:18:32.281Z,21.95
2018-07-28T09:19:32.266Z,22.04
2018-07-28T09:20:32.258Z,22.04
2018-07-28T09:21:32.243Z,21.99
2018-07-28T09:22:32.289Z,22.20
2018-07-28T09:23:32.276Z,22.25
2018-07-28T09:24:32.215Z,22.30
2018-07-28T09:25:32.206Z,22.30
2018-07-28T09:26:32.201Z,22.35
2018-07-28T09:27:32.180Z,22.47
2018-07-28T09:28:32.170Z,22.50
2018-07-28T09:29:32.170Z,22.57
2018-07-28T09:30:32.153Z,22.54
2018-07-28T09:31:32.138Z,22.54
2018-07-28T09:32:32.139Z,22.55
2018-07-28T09:33:32.146Z,22.59
2018-07-28T09:34:32.101Z,22.63
2018-07-28T09:35:32.098Z,22.60
2018-07-28T09:36:32.085Z,22.66
2018-07-28T09:37:32.105Z,22.70
2018-07-28T09:38:32.067Z,22.73
2018-07-28T09:39:32.049Z,22.75
2018-07-28T09:40:32.039Z,22.80
2018-07-28T09:41:32.028Z,22.87
2018-07-28T09:42:32.016Z,22.85
2018-07-28T09:43:32.049Z,22.99
2018-07-28T09:44:32.013Z,23.00
2018-07-28T09:45:32.027Z,23.13
2018-07-28T09:46:31.981Z,23.28
2018-07-28T09:47:31.985Z,23.36
2018-07-28T09:48:31.988Z,23.47
2018-07-28T09:49:31.948Z,23.65
2018-07-28T09:50:31.938Z,23.78
2018-07-28T09:51:31.925Z,23.80
2018-07-28T09:52:31.916Z,23.73
2018-07-28T09:53:31.902Z,23.74
2018-07-28T09:54:31.891Z,23.91
2018-07-28T09:55:31.885Z,24.01
2018-07-28T09:56:31.910Z,24.01
2018-07-28T09:57:31.861Z,24.14
2018-07-28T09:58:31.866Z,24.28
2018-07-28T09:59:31.897Z,24.29
2018-07-28T10:00:31.826Z,24.30
2018-07-28T10:01:31.824Z,24.50
2018-07-28T10:02:31.809Z,24.66
2018-07-28T10:03:31.793Z,24.73
2018-07-28T10:04:31.783Z,24.86
2018-07-28T10:05:31.797Z,24.81
2018-07-28T10:06:31.760Z,24.77
2018-07-28T10:07:31.764Z,24.85
2018-07-28T10:08:31.744Z,24.86
2018-07-28T10:09:31.739Z,24.93
2018-07-28T10:10:31.727Z,25.08
2018-07-28T10:11:31.713Z,25.08
2018-07-28T10:12:31.703Z,25.13
2018-07-28T10:13:31.690Z,25.22
2018-07-28T10:14:31.676Z,25.25
2018-07-28T10:15:31.676Z,25.25
2018-07-28T10:16:31.660Z,25.11
2018-07-28T10:17:31.649Z,24.99
2018-07-28T10:18:31.635Z,24.95
2018-07-28T10:19:31.634Z,24.80
2018-07-28T10:20:31.649Z,24.88
2018-07-28T10:21:31.609Z,24.66
2018-07-28T10:22:31.603Z,24.61
2018-07-28T10:23:31.584Z,24.58
2018-07-28T10:24:31.594Z,24.58
2018-07-28T10:25:31.567Z,24.66
2018-07-28T10:26:31.559Z,24.78
2018-07-28T10:27:31.550Z,24.76
2018-07-28T10:28:31.600Z,24.81
2018-07-28T10:29:31.526Z,24.80
2018-07-28T10:30:31.553Z,24.88
2018-07-28T10:31:31.500Z,24.86
2018-07-28T10:32:31.502Z,24.96
2018-07-28T10:33:31.501Z,24.96
2018-07-28T10:34:31.533Z,25.04
2018-07-28T10:35:31.486Z,24.98
2018-07-28T10:36:31.497Z,24.98
2018-07-28T10:37:31.451Z,25.14
2018-07-28T10:38:31.444Z,25.18
2018-07-28T10:39:31.431Z,25.16
2018-07-28T10:40:31.416Z,25.07
2018-07-28T10:41:31.408Z,25.13
2018-07-28T10:42:31.393Z,25.08
2018-07-28T10:43:31.382Z,25.22
2018-07-28T10:44:31.368Z,25.07
2018-07-28T10:45:31.407Z,24.98
2018-07-28T10:46:31.375Z,24.80
2018-07-28T10:47:31.340Z,24.70
2018-07-28T10:48:31.332Z,24.63
2018-07-28T10:49:31.335Z,24.50
2018-07-28T10:50:31.301Z,24.39
2018-07-28T10:51:31.301Z,24.23
2018-07-28T10:52:31.298Z,24.14
2018-07-28T10:53:31.275Z,24.03
2018-07-28T10:54:31.301Z,24.05
2018-07-28T10:55:31.294Z,23.95
2018-07-28T10:56:31.247Z,23.88
2018-07-28T10:57:31.230Z,23.86
2018-07-28T10:58:31.216Z,24.01
2018-07-28T10:59:31.222Z,24.28
2018-07-28T11:00:31.237Z,24.42
2018-07-28T11:01:31.187Z,24.55
2018-07-28T11:02:31.224Z,24.98
2018-07-28T11:03:31.166Z,25.13
2018-07-28T11:04:31.156Z,25.50
2018-07-28T11:05:31.145Z,25.65
2018-07-28T11:06:31.138Z,25.77
2018-07-28T11:07:31.122Z,25.88
2018-07-28T11:08:31.117Z,26.03
2018-07-28T11:09:31.115Z,26.00
2018-07-28T11:10:31.090Z,26.03
2018-07-28T11:11:31.098Z,26.09
2018-07-28T11:12:31.073Z,26.31
2018-07-28T11:13:31.091Z,26.58
2018-07-28T11:14:31.054Z,26.74
2018-07-28T11:15:31.040Z,26.70
2018-07-28T11:16:31.058Z,26.90
2018-07-28T11:17:31.725Z,26.97
2018-07-28T11:18:31.077Z,27.20
2018-07-28T11:19:31.006Z,27.37
2018-07-28T11:20:30.990Z,27.63
2018-07-28T11:21:30.976Z,27.82
2018-07-28T11:22:30.982Z,27.93
2018-07-28T11:23:30.978Z,27.98
2018-07-28T11:24:30.987Z,28.10
2018-07-28T11:25:30.937Z,28.20
2018-07-28T11:26:30.931Z,28.39
2018-07-28T11:27:30.915Z,28.48
2018-07-28T11:28:30.911Z,28.29
2018-07-28T11:29:30.897Z,28.23
2018-07-28T11:30:30.882Z,28.27
2018-07-28T11:31:30.935Z,28.38
2018-07-28T11:32:30.908Z,28.35
2018-07-28T11:33:30.861Z,28.38
2018-07-28T11:34:30.887Z,28.25
2018-07-28T11:35:30.833Z,28.08
2018-07-28T11:36:30.829Z,28.08
2018-07-28T11:37:30.848Z,28.05
2018-07-28T11:38:30.825Z,27.90
2018-07-28T11:39:30.801Z,27.82
2018-07-28T11:40:30.785Z,27.52
2018-07-28T11:41:30.772Z,27.40
2018-07-28T11:42:30.759Z,27.39
2018-07-28T11:43:30.793Z,27.54
2018-07-28T11:44:30.816Z,27.78
2018-07-28T11:45:30.732Z,28.10
2018-07-28T11:46:30.731Z,29.14
2018-07-28T11:47:30.709Z,29.66
2018-07-28T11:48:30.700Z,30.08
2018-07-28T11:49:30.699Z,29.68
2018-07-28T11:50:30.679Z,29.31
2018-07-28T11:51:30.679Z,29.10
2018-07-28T11:52:30.681Z,29.16
2018-07-28T11:53:30.659Z,29.71
2018-07-28T11:54:30.658Z,30.72
2018-07-28T11:55:30.678Z,31.17
2018-07-28T11:56:30.622Z,31.49
2018-07-28T11:57:30.614Z,31.78
2018-07-28T11:58:30.716Z,31.40
2018-07-28T11:59:30.609Z,32.23
2018-07-28T12:00:30.610Z,32.64
2018-07-28T12:01:30.579Z,32.48
2018-07-28T12:02:30.569Z,32.51
2018-07-28T12:03:30.560Z,33.02
2018-07-28T12:04:30.550Z,33.81
2018-07-28T12:05:30.620Z,34.06
2018-07-28T12:06:30.550Z,34.13
2018-07-28T12:07:30.517Z,34.62
2018-07-28T12:08:30.521Z,34.50
2018-07-28T12:09:30.505Z,34.45
2018-07-28T12:10:30.509Z,34.45
2018-07-28T12:11:30.486Z,35.00
2018-07-28T12:12:30.557Z,35.00
2018-07-28T12:13:30.507Z,35.05
2018-07-28T12:14:30.452Z,35.08
2018-07-28T12:15:30.485Z,35.44
2018-07-28T12:16:30.472Z,35.83
2018-07-28T12:17:30.469Z,35.89
2018-07-28T12:18:30.480Z,36.12
2018-07-28T12:19:30.416Z,36.17
2018-07-28T12:20:30.422Z,36.36
2018-07-28T12:21:30.404Z,36.28
2018-07-28T12:22:30.402Z,36.14
2018-07-28T12:23:30.395Z,35.17
2018-07-28T12:24:30.376Z,35.55
2018-07-28T12:25:30.362Z,34.97
2018-07-28T12:26:30.409Z,34.08
2018-07-28T12:27:30.383Z,33.32
2018-07-28T12:28:30.369Z,32.71
2018-07-28T12:29:30.333Z,32.33
2018-07-28T12:30:30.323Z,32.41
2018-07-28T12:31:30.307Z,32.07
2018-07-28T12:32:30.308Z,31.87
2018-07-28T12:33:30.297Z,31.33
2018-07-28T12:34:30.319Z,31.09
2018-07-28T12:35:30.316Z,30.96
2018-07-28T12:36:30.272Z,30.88
2018-07-28T12:37:30.254Z,30.77
2018-07-28T12:38:30.290Z,30.47
2018-07-28T12:39:30.235Z,30.08
2018-07-28T12:40:30.220Z,29.69
2018-07-28T12:41:30.247Z,29.60
2018-07-28T12:42:30.225Z,29.53
2018-07-28T12:43:30.194Z,29.41
2018-07-28T12:44:30.182Z,29.23
2018-07-28T12:45:30.185Z,29.07
2018-07-28T12:46:30.159Z,28.86
2018-07-28T12:47:30.171Z,29.12
2018-07-28T12:48:30.172Z,29.71
2018-07-28T12:49:30.211Z,30.32
2018-07-28T12:50:30.137Z,30.59
2018-07-28T12:51:30.113Z,30.50
2018-07-28T12:52:30.108Z,30.72